Time;durP1;ratioP1;P1;durP2;ratioP2;P2;SDS_P1;SDS_P2;PMS_P1;PMS_P2;Temp;Humidity;BMP_temperature;BMP_pressure;BME280_temperature;BME280_humidity;BME280_pressure;Samples;Min_cycle;Max_cycle;Signal;HPM_P1;HPM_P2
2023/03/02 00:00:42;;;;;;;4.28;2.08;;;;;;;4.97;98.84;94950.09;5145509;27;21446;-77
2023/03/02 00:03:10;;;;;;;5.18;1.70;;;;;;;4.97;98.82;94949.28;5141403;27;20840;-76
2023/03/02 00:05:39;;;;;;;4.25;2.15;;;;;;;4.98;98.91;94945.53;5137760;27;20246;-76
2023/03/02 00:08:09;;;;;;;3.10;1.77;;;;;;;5.02;98.76;94951.13;5140220;27;20678;-78
2023/03/02 00:10:36;;;;;;;4.15;2.25;;;;;;;4.97;98.89;94944.72;5145873;27;20197;-76
2023/03/02 00:13:03;;;;;;;4.00;1.80;;;;;;;4.96;98.63;94943.13;5143652;27;20323;-77
2023/03/02 00:15:30;;;;;;;1.90;1.52;;;;;;;4.97;98.36;94949.28;5138276;27;20232;-78
2023/03/02 00:17:56;;;;;;;4.15;1.95;;;;;;;4.99;98.55;94942.56;5140612;27;20197;-76
2023/03/02 00:20:23;;;;;;;3.72;2.30;;;;;;;5.02;98.14;94951.13;5131746;27;20208;-78
2023/03/02 00:22:50;;;;;;;5.70;2.15;;;;;;;4.97;97.98;94936.69;5143153;27;20655;-78
2023/03/02 00:25:19;;;;;;;3.70;1.58;;;;;;;4.97;98.02;94934.00;5133258;27;20946;-76
2023/03/02 00:27:45;;;;;;;1.67;1.02;;;;;;;4.93;97.91;94924.91;5144868;27;20231;-77
2023/03/02 00:30:14;;;;;;;3.08;1.35;;;;;;;4.95;98.02;94928.09;5132517;27;20201;-79
2023/03/02 00:32:41;;;;;;;2.33;1.45;;;;;;;4.97;98.02;94922.44;5131452;27;20659;-78
2023/03/02 00:35:09;;;;;;;1.88;1.27;;;;;;;5.00;97.41;94917.31;5141311;27;20252;-74
2023/03/02 00:37:36;;;;;;;1.48;0.98;;;;;;;5.05;97.49;94923.72;5138708;27;20224;-78
2023/03/02 00:40:05;;;;;;;2.33;1.50;;;;;;;4.99;97.39;94920.28;5138954;27;20233;-79
2023/03/02 00:42:34;;;;;;;3.85;2.10;;;;;;;4.90;97.66;94906.69;5137935;27;20661;-76
2023/03/02 00:45:01;;;;;;;2.25;1.42;;;;;;;4.92;97.78;94909.88;5144864;27;20212;-79
2023/03/02 00:47:28;;;;;;;0.73;0.73;;;;;;;4.87;97.61;94911.84;5145401;27;20192;-76
2023/03/02 00:49:55;;;;;;;2.72;1.45;;;;;;;4.86;97.52;94905.66;5138336;27;20228;-77
2023/03/02 00:52:22;;;;;;;3.13;1.67;;;;;;;4.85;97.32;94904.06;5137874;27;20197;-77
2023/03/02 00:54:49;;;;;;;4.57;2.15;;;;;;;4.82;97.63;94891.19;5143704;27;20233;-78
2023/03/02 00:57:15;;;;;;;2.45;1.55;;;;;;;4.76;98.70;94900.41;5145222;27;20204;-77
2023/03/02 00:59:43;;;;;;;2.28;1.33;;;;;;;4.79;98.96;94899.00;5139822;27;20249;-75
2023/03/02 01:02:10;;;;;;;2.30;1.70;;;;;;;4.74;99.51;94896.41;5136302;27;20205;-74
2023/03/02 01:04:39;;;;;;;1.77;1.42;;;;;;;4.60;100.00;94888.22;5139584;27;20288;-79
2023/03/02 01:07:09;;;;;;;2.63;1.45;;;;;;;4.59;100.00;94883.94;5137442;27;20204;-75
2023/03/02 01:09:36;;;;;;;2.67;1.52;;;;;;;4.55;100.00;94882.91;5142126;27;20657;-78
2023/03/02 01:12:08;;;;;;;3.15;1.40;;;;;;;4.50;100.00;94885.66;5144721;27;20204;-79
2023/03/02 01:14:35;;;;;;;2.33;1.17;;;;;;;4.48;100.00;94877.06;5140645;27;20936;-78
2023/03/02 01:17:03;;;;;;;1.27;0.95;;;;;;;4.51;100.00;94876.53;5133893;27;20245;-77
2023/03/02 01:19:30;;;;;;;3.22;2.10;;;;;;;4.49;100.00;94870.63;5130223;27;20204;-78
2023/03/02 01:21:58;;;;;;;1.40;1.27;;;;;;;4.44;100.00;94870.66;5144720;27;20658;-76
2023/03/02 01:24:25;;;;;;;2.95;1.65;;;;;;;4.53;100.00;94879.69;5141088;27;20241;-76
2023/03/02 01:26:52;;;;;;;2.28;1.50;;;;;;;4.48;100.00;94887.81;5138445;27;20200;-77
2023/03/02 01:29:19;;;;;;;1.92;1.35;;;;;;;4.45;100.00;94886.47;5138821;27;20209;-78
2023/03/02 01:31:46;;;;;;;2.92;1.38;;;;;;;4.46;100.00;94879.25;5136347;27;20662;-77
2023/03/02 01:34:14;;;;;;;1.67;1.30;;;;;;;4.50;100.00;94877.59;5141771;27;20228;-77
2023/03/02 01:36:44;;;;;;;2.63;1.55;;;;;;;4.55;100.00;94882.91;5143993;27;20213;-76
2023/03/02 01:39:14;;;;;;;2.55;1.25;;;;;;;4.52;100.00;94884.25;5143615;27;20717;-77
2023/03/02 01:41:41;;;;;;;1.83;1.20;;;;;;;4.49;100.00;94884.03;5137542;27;20193;-76
2023/03/02 01:44:38;;;;;;;4.20;1.35;;;;;;;4.54;100.00;94875.94;5137122;27;20222;-77
2023/03/02 01:47:12;;;;;;;2.10;1.70;;;;;;;4.48;100.00;94863.66;5139412;27;20197;-77
2023/03/02 01:49:43;;;;;;;1.52;1.02;;;;;;;4.60;100.00;94864.06;5144134;27;20223;-76
2023/03/02 01:52:11;;;;;;;1.42;0.82;;;;;;;4.59;100.00;94867.84;5130041;27;20250;-77
2023/03/02 01:54:40;;;;;;;2.80;1.38;;;;;;;4.57;100.00;94870.00;5143693;27;20227;-77
2023/03/02 01:57:08;;;;;;;1.83;1.27;;;;;;;4.51;100.00;94860.44;5144008;27;20653;-76
2023/03/02 01:59:37;;;;;;;3.47;1.25;;;;;;;4.55;100.00;94861.44;5143429;27;20203;-77
2023/03/02 02:02:08;;;;;;;1.52;1.00;;;;;;;4.46;100.00;94847.06;5143363;27;20733;-79
2023/03/02 02:04:37;;;;;;;1.85;1.23;;;;;;;4.47;100.00;94860.19;5138632;27;20277;-78
2023/03/02 02:07:07;;;;;;;1.40;1.05;;;;;;;4.46;100.00;94855.09;5136789;27;20219;-77
2023/03/02 02:09:38;;;;;;;1.10;0.70;;;;;;;4.45;100.00;94861.53;5140601;27;20663;-77
2023/03/02 02:12:06;;;;;;;3.42;1.20;;;;;;;4.45;100.00;94861.53;5143627;27;20241;-77
2023/03/02 02:14:33;;;;;;;1.08;0.98;;;;;;;4.42;100.00;94856.75;5139912;27;20285;-77
2023/03/02 02:17:00;;;;;;;2.40;1.13;;;;;;;4.44;100.00;94865.31;5136643;27;20598;-78
2023/03/02 02:19:40;;;;;;;1.75;0.90;;;;;;;4.45;100.00;94867.72;5150268;27;20280;-77
2023/03/02 02:22:09;;;;;;;2.15;1.50;;;;;;;4.40;100.00;94869.63;5135760;27;20248;-79
2023/03/02 02:24:42;;;;;;;0.68;0.50;;;;;;;4.41;100.00;94869.34;5137172;27;20559;-75
2023/03/02 02:27:11;;;;;;;1.48;1.20;;;;;;;4.36;100.00;94863.25;5137488;27;20193;-77
2023/03/02 02:29:44;;;;;;;2.28;1.25;;;;;;;4.38;100.00;94871.78;5134538;27;20872;-76
2023/03/02 02:32:15;;;;;;;1.05;0.85;;;;;;;4.41;100.00;94865.88;5130050;27;20196;-77
2023/03/02 02:34:47;;;;;;;1.77;1.15;;;;;;;4.39;100.00;94857.28;5134863;27;20205;-78
2023/03/02 02:37:20;;;;;;;1.60;1.08;;;;;;;4.39;100.00;94862.66;5140298;27;20246;-76
2023/03/02 02:39:48;;;;;;;4.40;1.45;;;;;;;4.33;100.00;94869.16;5142977;27;20764;-77
2023/03/02 02:42:21;;;;;;;1.30;0.73;;;;;;;4.31;100.00;94860.59;5129028;28;20200;-75
2023/03/02 02:44:48;;;;;;;3.03;1.30;;;;;;;4.31;100.00;94861.41;5148690;27;20235;-78
2023/03/02 02:47:19;;;;;;;2.50;1.20;;;;;;;4.28;100.00;94856.59;5137329;27;20739;-78
2023/03/02 02:49:48;;;;;;;2.58;1.30;;;;;;;4.25;100.00;94863.31;5135921;27;20219;-77
2023/03/02 02:52:17;;;;;;;1.75;1.00;;;;;;;4.26;100.00;94859.56;5150155;27;20711;-76
2023/03/02 02:54:47;;;;;;;2.28;1.10;;;;;;;4.24;100.00;94861.72;5136123;27;20764;-77
2023/03/02 02:57:16;;;;;;;2.13;1.33;;;;;;;4.21;100.00;94859.63;5135553;27;20505;-77
2023/03/02 02:59:47;;;;;;;1.92;1.25;;;;;;;4.24;100.00;94855.56;5149902;27;20195;-77
2023/03/02 03:02:19;;;;;;;1.60;1.20;;;;;;;4.19;100.00;94853.75;5135714;27;20670;-78
2023/03/02 03:04:46;;;;;;;1.90;1.58;;;;;;;4.23;100.00;94849.44;5139461;27;20207;-77
2023/03/02 03:07:17;;;;;;;2.22;1.63;;;;;;;4.28;100.00;94857.41;5142875;27;20200;-76
2023/03/02 03:09:45;;;;;;;0.90;0.77;;;;;;;4.23;100.00;94849.44;5140334;27;20708;-78
2023/03/02 03:12:16;;;;;;;3.17;1.40;;;;;;;4.26;100.00;94851.50;5135692;27;20200;-77
2023/03/02 03:14:45;;;;;;;2.88;1.73;;;;;;;4.28;100.00;94846.69;5138300;27;20244;-76
2023/03/02 03:17:12;;;;;;;4.47;1.63;;;;;;;4.24;100.00;94851.00;5143574;27;20201;-76
2023/03/02 03:19:40;;;;;;;2.30;1.55;;;;;;;4.23;100.00;94837.91;5141075;27;20833;-77
2023/03/02 03:22:10;;;;;;;1.52;0.85;;;;;;;4.27;100.00;94845.06;5135625;27;20208;-76
2023/03/02 03:24:38;;;;;;;0.88;0.80;;;;;;;4.22;100.00;94853.19;5136802;27;20292;-77
2023/03/02 03:27:06;;;;;;;1.30;1.15;;;;;;;4.29;100.00;94848.28;5141170;27;20667;-79
2023/03/02 03:29:34;;;;;;;1.65;1.33;;;;;;;4.29;100.00;94848.28;5142642;27;20260;-76
2023/03/02 03:32:03;;;;;;;1.35;0.90;;;;;;;4.26;100.00;94854.19;5136597;27;20277;-78
2023/03/02 03:34:31;;;;;;;1.77;1.10;;;;;;;4.27;100.00;94852.31;5144730;27;20232;-78
2023/03/02 03:37:00;;;;;;;1.38;1.05;;;;;;;4.21;100.00;94856.94;5128920;28;20723;-78
2023/03/02 03:39:27;;;;;;;6.72;1.35;;;;;;;4.27;100.00;94853.13;5142560;27;20811;-76
2023/03/02 03:41:54;;;;;;;1.23;1.10;;;;;;;4.31;100.00;94855.25;5130949;27;20205;-76
2023/03/02 03:44:21;;;;;;;2.22;1.50;;;;;;;4.21;100.00;94851.59;5145962;27;20738;-77
2023/03/02 03:46:48;;;;;;;1.75;1.15;;;;;;;4.27;100.00;94845.06;5141989;27;20857;-76
2023/03/02 03:49:16;;;;;;;2.55;1.63;;;;;;;4.29;100.00;94852.84;5138894;27;20609;-77
2023/03/02 03:51:43;;;;;;;2.83;1.42;;;;;;;4.23;100.00;94849.44;5142602;27;20205;-76
2023/03/02 03:54:10;;;;;;;5.32;1.35;;;;;;;4.24;100.00;94851.00;5132307;27;20788;-77
2023/03/02 03:56:39;;;;;;;1.02;0.85;;;;;;;4.31;100.00;94845.31;5142163;27;20736;-77
2023/03/02 03:59:07;;;;;;;3.03;1.25;;;;;;;4.31;100.00;94849.88;5138813;27;20204;-79
2023/03/02 04:01:36;;;;;;;2.20;1.23;;;;;;;4.35;100.00;94850.94;5142405;27;20213;-77
2023/03/02 04:04:04;;;;;;;1.98;1.17;;;;;;;4.23;100.00;94843.25;5145507;27;20205;-78
2023/03/02 04:06:32;;;;;;;1.65;1.00;;;;;;;4.26;100.00;94843.47;5131959;27;20223;-78
2023/03/02 04:09:03;;;;;;;1.85;1.27;;;;;;;4.24;100.00;94851.00;5136703;27;20209;-76
2023/03/02 04:11:30;;;;;;;1.60;1.30;;;;;;;4.25;100.00;94847.22;5139586;27;20268;-77
2023/03/02 04:13:57;;;;;;;1.65;1.17;;;;;;;4.24;100.00;94851.00;5145350;27;20723;-79
2023/03/02 04:16:24;;;;;;;2.08;1.17;;;;;;;4.28;100.00;94846.69;5131883;27;20239;-76
2023/03/02 04:18:50;;;;;;;2.50;1.35;;;;;;;4.31;100.00;94844.53;5151575;27;20192;-76
2023/03/02 04:21:17;;;;;;;1.15;1.05;;;;;;;4.38;100.00;94850.34;5140018;27;20209;-76
2023/03/02 04:23:45;;;;;;;4.07;1.65;;;;;;;4.33;100.00;94845.84;5145644;27;20258;-76
2023/03/02 04:26:12;;;;;;;1.65;1.02;;;;;;;4.31;100.00;94849.88;5131036;27;20201;-77
2023/03/02 04:28:39;;;;;;;2.47;1.13;;;;;;;4.22;100.00;94837.09;5131525;27;20747;-76
2023/03/02 04:31:06;;;;;;;2.03;1.58;;;;;;;4.17;100.00;94839.81;5144773;27;20201;-77
2023/03/02 04:33:33;;;;;;;1.55;1.08;;;;;;;4.17;100.00;94844.38;5134724;27;20273;-77
2023/03/02 04:36:00;;;;;;;3.60;1.65;;;;;;;4.17;100.00;94845.19;5145208;27;20685;-77
2023/03/02 04:38:28;;;;;;;2.22;1.60;;;;;;;4.18;100.00;94846.78;5138309;27;20207;-78
2023/03/02 04:40:57;;;;;;;2.78;1.60;;;;;;;4.20;100.00;94849.19;5138512;27;20232;-76
2023/03/02 04:43:25;;;;;;;3.58;1.73;;;;;;;4.19;100.00;94855.63;5143916;27;20603;-73
2023/03/02 04:45:53;;;;;;;4.00;2.05;;;;;;;4.13;100.00;94854.06;5132437;27;20200;-78
2023/03/02 04:48:21;;;;;;;2.65;1.48;;;;;;;4.17;100.00;94855.09;5143351;27;20205;-80
2023/03/02 04:50:48;;;;;;;4.35;2.40;;;;;;;4.17;100.00;94863.13;5145294;27;20244;-77
2023/03/02 04:53:15;;;;;;;2.45;1.88;;;;;;;4.13;100.00;94865.56;5139853;27;20238;-80
2023/03/02 04:55:42;;;;;;;2.45;1.80;;;;;;;4.13;100.00;94870.94;5149786;27;20778;-78
2023/03/02 04:58:10;;;;;;;3.53;2.70;;;;;;;4.12;100.00;94869.34;5139529;27;20252;-78
2023/03/02 05:00:37;;;;;;;3.58;2.58;;;;;;;4.18;100.00;94868.22;5137305;27;20282;-78
2023/03/02 05:03:05;;;;;;;4.38;2.58;;;;;;;4.18;100.00;94860.19;5142065;27;20980;-77
2023/03/02 05:05:32;;;;;;;2.92;1.75;;;;;;;4.19;100.00;94859.09;5145055;27;20216;-78
2023/03/02 05:07:59;;;;;;;2.17;1.70;;;;;;;4.13;100.00;94857.53;5141220;27;20245;-77
2023/03/02 05:10:27;;;;;;;3.15;2.35;;;;;;;4.17;100.00;94868.50;5138291;27;20699;-81
2023/03/02 05:12:56;;;;;;;3.80;2.58;;;;;;;4.14;100.00;94871.72;5140708;27;20681;-80
2023/03/02 05:15:27;;;;;;;3.97;2.22;;;;;;;4.12;100.00;94863.16;5134489;27;20289;-79
2023/03/02 05:17:55;;;;;;;4.85;2.75;;;;;;;4.10;100.00;94860.78;5139559;27;20189;-79
2023/03/02 05:20:26;;;;;;;4.57;2.85;;;;;;;4.12;100.00;94874.69;5146729;27;20205;-81
2023/03/02 05:22:54;;;;;;;3.53;2.28;;;;;;;4.15;100.00;94866.09;5143441;27;20189;-78
2023/03/02 05:25:21;;;;;;;1.63;1.25;;;;;;;4.14;100.00;94861.81;5144570;27;20197;-78
2023/03/02 05:27:48;;;;;;;2.70;1.90;;;;;;;4.19;100.00;94875.19;5143855;27;20200;-79
2023/03/02 05:30:15;;;;;;;5.28;3.20;;;;;;;4.15;100.00;94868.78;5144937;27;20208;-80
2023/03/02 05:32:43;;;;;;;3.75;2.20;;;;;;;4.28;100.00;94876.16;5129655;27;20714;-77
2023/03/02 05:35:10;;;;;;;2.97;2.00;;;;;;;4.36;100.00;94880.13;5140318;27;20653;-74
2023/03/02 05:37:40;;;;;;;2.15;1.83;;;;;;;4.43;100.00;94874.44;5130283;27;20205;-77
2023/03/02 05:40:09;;;;;;;3.45;2.45;;;;;;;4.43;100.00;94874.44;5137158;27;20204;-78
2023/03/02 05:42:36;;;;;;;4.05;2.17;;;;;;;4.41;100.00;94884.63;5136979;27;20203;-80
2023/03/02 05:45:03;;;;;;;5.72;2.65;;;;;;;4.42;100.00;94880.88;5143849;27;20667;-76
2023/03/02 05:47:30;;;;;;;2.83;2.08;;;;;;;4.41;100.00;94880.06;5130921;27;20265;-78
2023/03/02 05:49:59;;;;;;;4.10;2.50;;;;;;;4.43;100.00;94869.88;5143697;27;20655;-78
2023/03/02 05:52:25;;;;;;;2.67;1.65;;;;;;;4.53;100.00;94882.38;5144172;27;20239;-78
2023/03/02 05:54:52;;;;;;;3.90;1.75;;;;;;;4.61;100.00;94884.47;5137902;27;20228;-77
2023/03/02 05:57:19;;;;;;;3.83;2.50;;;;;;;4.59;100.00;94886.63;5135265;27;20201;-80
2023/03/02 05:59:46;;;;;;;3.95;2.92;;;;;;;4.69;100.00;94877.66;5137725;27;20212;-77
2023/03/02 06:02:13;;;;;;;5.78;3.15;;;;;;;4.64;100.00;94881.22;5136584;27;20663;-77
2023/03/02 06:04:41;;;;;;;3.30;2.53;;;;;;;4.74;100.00;94886.47;5141449;27;20222;-79
2023/03/02 06:07:10;;;;;;;4.32;2.60;;;;;;;4.79;100.00;94883.72;5143941;27;20674;-80
2023/03/02 06:09:37;;;;;;;2.63;1.85;;;;;;;4.72;100.00;94882.47;5140149;27;20249;-78
2023/03/02 06:12:04;;;;;;;5.22;3.05;;;;;;;4.65;100.00;94882.78;5136591;27;20201;-78
2023/03/02 06:14:31;;;;;;;6.70;3.60;;;;;;;4.74;100.00;94881.09;5140477;27;20233;-77
2023/03/02 06:16:58;;;;;;;7.03;3.15;;;;;;;4.84;100.00;94889.03;5132090;27;20238;-77
2023/03/02 06:19:25;;;;;;;4.35;2.90;;;;;;;4.92;100.00;94899.13;5140714;27;20209;-76
2023/03/02 06:21:52;;;;;;;3.60;2.13;;;;;;;4.83;100.00;94892.81;5133876;27;20197;-79
2023/03/02 06:24:20;;;;;;;5.20;3.25;;;;;;;4.95;100.00;94898.56;5139738;27;20221;-78
2023/03/02 06:26:46;;;;;;;5.40;2.78;;;;;;;4.79;99.79;94893.66;5133404;27;20209;-78
2023/03/02 06:29:13;;;;;;;4.82;3.00;;;;;;;4.82;100.00;94899.25;5142217;27;20200;-78
2023/03/02 06:31:40;;;;;;;7.80;3.92;;;;;;;4.88;100.00;94908.88;5145586;27;20670;-79
2023/03/02 06:34:07;;;;;;;4.85;3.10;;;;;;;4.93;100.00;94902.63;5132416;27;20246;-77
2023/03/02 06:36:33;;;;;;;3.45;2.20;;;;;;;4.92;100.00;94915.25;5143491;27;20229;-78
2023/03/02 06:39:00;;;;;;;5.75;2.90;;;;;;;5.11;100.00;94901.91;5141714;27;21100;-78
2023/03/02 06:41:28;;;;;;;8.45;4.68;;;;;;;5.35;99.70;94908.03;5136357;27;20256;-77
2023/03/02 06:43:55;;;;;;;6.32;3.22;;;;;;;5.35;99.15;94891.13;5140960;27;20254;-78
2023/03/02 06:46:21;;;;;;;4.63;2.65;;;;;;;5.09;98.06;94903.25;5130075;28;20265;-78
2023/03/02 06:48:48;;;;;;;3.40;2.80;;;;;;;5.10;99.18;94904.84;5142083;27;20200;-75
2023/03/02 06:51:15;;;;;;;4.35;2.92;;;;;;;4.98;99.15;94919.50;5136745;27;20205;-75
2023/03/02 06:53:42;;;;;;;4.47;2.97;;;;;;;5.04;100.00;94916.75;5137557;27;20204;-78
2023/03/02 06:56:09;;;;;;;3.25;2.00;;;;;;;5.00;99.73;94906.59;5134932;27;21024;-77
2023/03/02 06:58:37;;;;;;;6.07;3.50;;;;;;;4.95;99.80;94911.19;5137456;27;20208;-80
2023/03/02 07:01:06;;;;;;;3.65;2.92;;;;;;;4.94;99.78;94913.09;5149205;27;20216;-80
2023/03/02 07:03:33;;;;;;;4.72;3.67;;;;;;;4.96;99.57;94908.22;5149867;27;20200;-79
2023/03/02 07:06:00;;;;;;;3.95;2.53;;;;;;;4.88;100.00;94898.13;5135834;27;20212;-79
2023/03/02 07:08:26;;;;;;;7.40;3.72;;;;;;;4.92;100.00;94899.13;5136991;27;20219;-78
2023/03/02 07:10:53;;;;;;;5.28;3.28;;;;;;;4.86;99.92;94911.03;5137074;27;20204;-80
2023/03/02 07:13:20;;;;;;;6.53;3.65;;;;;;;4.84;100.00;94891.72;5136246;27;20204;-77
2023/03/02 07:15:48;;;;;;;9.13;5.38;;;;;;;4.97;100.00;94904.47;5143640;27;20282;-80
2023/03/02 07:18:15;;;;;;;6.53;3.72;;;;;;;4.98;100.00;94902.56;5133129;27;20879;-80
2023/03/02 07:20:42;;;;;;;7.65;4.38;;;;;;;5.07;100.00;94900.84;5146715;27;20209;-80
2023/03/02 07:23:20;;;;;;;3.45;2.83;;;;;;;5.00;100.00;94895.84;5147228;27;20264;-79
2023/03/02 07:25:47;;;;;;;5.18;2.67;;;;;;;5.03;99.88;94897.16;5141728;27;20196;-75
2023/03/02 07:28:14;;;;;;;5.82;3.35;;;;;;;4.95;99.18;94898.56;5139838;27;20658;-79
2023/03/02 07:30:40;;;;;;;7.60;3.50;;;;;;;5.16;100.00;94895.69;5143682;27;20607;-79
2023/03/02 07:33:12;;;;;;;5.10;3.17;;;;;;;5.18;99.34;94897.00;5131186;27;20222;-78
2023/03/02 07:35:38;;;;;;;17.25;5.57;;;;;;;5.38;99.16;94905.88;5143574;27;20216;-77
2023/03/02 07:38:05;;;;;;;5.28;3.35;;;;;;;5.28;98.22;94909.50;5150427;27;20254;-78
2023/03/02 07:40:32;;;;;;;4.57;2.88;;;;;;;5.23;98.07;94906.84;5144610;27;20760;-79
2023/03/02 07:42:59;;;;;;;5.80;2.88;;;;;;;5.27;98.10;94907.88;5139790;27;20235;-77
2023/03/02 07:45:26;;;;;;;6.50;3.30;;;;;;;5.30;97.95;94910.81;5142285;27;20223;-79
2023/03/02 07:47:53;;;;;;;6.28;3.38;;;;;;;5.23;97.97;94899.59;5144080;27;20242;-78
2023/03/02 07:50:21;;;;;;;4.25;2.70;;;;;;;5.31;98.25;94900.88;5132882;27;20201;-78
2023/03/02 07:52:48;;;;;;;7.28;3.72;;;;;;;5.22;97.44;94907.94;5147149;27;20201;-78
2023/03/02 07:55:14;;;;;;;3.95;2.42;;;;;;;5.28;98.12;94901.44;5132841;27;20232;-77
2023/03/02 07:57:41;;;;;;;6.40;3.40;;;;;;;5.23;97.98;94898.78;5134262;27;20257;-77
2023/03/02 08:00:09;;;;;;;5.30;2.42;;;;;;;5.23;97.71;94898.78;5138031;27;20284;-76
2023/03/02 08:02:36;;;;;;;6.90;3.65;;;;;;;5.23;98.09;94893.44;5143907;27;20244;-78
2023/03/02 08:05:03;;;;;;;3.53;2.45;;;;;;;5.17;97.80;94905.34;5132058;27;20261;-78
2023/03/02 08:07:31;;;;;;;11.70;3.83;;;;;;;5.13;97.70;94893.56;5138135;27;20689;-78
2023/03/02 08:09:59;;;;;;;2.80;2.00;;;;;;;5.25;98.14;94902.00;5140424;27;20765;-78
2023/03/02 08:12:26;;;;;;;7.18;3.33;;;;;;;5.27;97.53;94902.50;5139710;27;20224;-81
2023/03/02 08:14:53;;;;;;;6.75;3.15;;;;;;;5.23;97.93;94896.91;5140666;27;20254;-78
2023/03/02 08:17:20;;;;;;;5.28;2.58;;;;;;;5.24;97.82;94895.03;5153897;27;20676;-77
2023/03/02 08:19:47;;;;;;;4.88;2.53;;;;;;;5.24;98.10;94884.28;5139789;27;20201;-79
2023/03/02 08:22:15;;;;;;;5.75;3.17;;;;;;;5.28;98.07;94896.06;5146229;27;20270;-80
2023/03/02 08:24:43;;;;;;;7.70;3.80;;;;;;;5.36;99.00;94893.53;5145888;27;20256;-77
2023/03/02 08:27:13;;;;;;;5.97;2.70;;;;;;;5.29;98.79;94892.28;5131534;27;20262;-79
2023/03/02 08:29:39;;;;;;;7.90;4.68;;;;;;;5.54;100.00;94883.91;5144331;27;20422;-78
2023/03/02 08:32:06;;;;;;;6.18;3.17;;;;;;;5.51;99.27;94889.03;5132659;27;20572;-78
2023/03/02 08:34:33;;;;;;;7.80;4.18;;;;;;;5.49;99.29;94891.22;5141831;27;20201;-82
2023/03/02 08:37:00;;;;;;;7.50;3.47;;;;;;;5.43;99.71;94882.44;5131336;27;20257;-79
2023/03/02 08:39:29;;;;;;;8.35;4.20;;;;;;;5.47;100.00;94891.50;5145839;27;20200;-79
2023/03/02 08:41:58;;;;;;;6.03;3.75;;;;;;;5.43;100.00;94889.69;5141171;27;20676;-79
2023/03/02 08:44:25;;;;;;;7.45;3.97;;;;;;;5.37;98.87;94905.06;5138738;27;20269;-80
2023/03/02 08:46:52;;;;;;;5.65;3.25;;;;;;;5.52;100.00;94896.81;5142347;27;20674;-79
2023/03/02 08:49:20;;;;;;;6.80;3.60;;;;;;;5.78;100.00;94885.72;5149324;27;20196;-80
2023/03/02 08:51:52;;;;;;;7.57;4.28;;;;;;;5.67;100.00;94883.19;5152954;27;20196;-78
2023/03/02 08:54:19;;;;;;;7.65;3.90;;;;;;;5.83;99.79;94875.69;5146852;27;20593;-81
2023/03/02 08:56:46;;;;;;;10.50;5.07;;;;;;;5.96;100.00;94882.25;5131274;27;20313;-80
2023/03/02 08:59:14;;;;;;;5.90;3.15;;;;;;;6.08;99.99;94882.59;5145204;27;20225;-73
2023/03/02 09:01:42;;;;;;;11.40;5.45;;;;;;;6.02;98.65;94878.38;5143308;27;20200;-77
2023/03/02 09:04:10;;;;;;;9.90;5.03;;;;;;;6.06;97.82;94882.09;5114403;27;20205;-78
2023/03/02 09:06:40;;;;;;;11.18;5.30;;;;;;;6.06;97.55;94874.03;5143140;27;20209;-76
2023/03/02 09:09:08;;;;;;;4.97;3.50;;;;;;;6.02;97.08;94878.38;5137752;27;20211;-77
2023/03/02 09:11:35;;;;;;;6.20;2.60;;;;;;;5.90;96.80;94875.34;5139885;27;20201;-76
2023/03/02 09:14:02;;;;;;;5.90;2.97;;;;;;;5.88;98.47;94869.44;5148163;27;20292;-78
2023/03/02 09:16:31;;;;;;;5.50;3.97;;;;;;;5.85;97.64;94876.22;5138237;27;20229;-80
2023/03/02 09:18:58;;;;;;;9.27;4.85;;;;;;;5.76;98.04;94872.56;5138362;27;20208;-80
2023/03/02 09:21:25;;;;;;;9.63;4.35;;;;;;;5.70;98.16;94873.75;5137350;27;20212;-75
2023/03/02 09:23:54;;;;;;;5.38;3.65;;;;;;;5.70;98.05;94866.47;5143880;27;20201;-81
2023/03/02 09:26:21;;;;;;;8.70;3.55;;;;;;;5.81;98.72;94866.31;5144907;27;20260;-82
2023/03/02 09:28:48;;;;;;;7.55;4.28;;;;;;;5.85;98.69;94859.28;5139642;27;20200;-79
2023/03/02 09:31:14;;;;;;;5.30;3.05;;;;;;;6.00;99.19;94867.16;5137099;27;20228;-79
2023/03/02 09:33:43;;;;;;;6.35;3.85;;;;;;;6.05;98.40;94864.38;5147613;27;20203;-78
2023/03/02 09:36:14;;;;;;;5.75;2.13;;;;;;;6.06;98.03;94864.06;5136405;27;20229;-77
2023/03/02 09:38:41;;;;;;;5.53;3.28;;;;;;;6.10;97.73;94863.50;5139765;27;20670;-79
2023/03/02 09:41:24;;;;;;;6.78;3.55;;;;;;;5.98;96.96;94863.94;5137081;27;20201;-79
2023/03/02 09:44:01;;;;;;;2.53;1.73;;;;;;;6.01;97.12;94866.06;5139806;27;20293;-77
2023/03/02 09:46:33;;;;;;;4.88;3.10;;;;;;;6.06;97.32;94857.91;5150207;27;20237;-78
2023/03/02 09:49:15;;;;;;;3.83;2.13;;;;;;;5.88;95.43;94856.00;5137086;27;20637;-72
2023/03/02 09:51:47;;;;;;;4.63;3.08;;;;;;;6.05;95.95;94867.06;5142009;27;20254;-78
2023/03/02 09:54:15;;;;;;;4.28;3.25;;;;;;;6.09;96.48;94861.91;5133044;27;20708;-76
2023/03/02 09:56:45;;;;;;;6.30;4.00;;;;;;;6.25;96.32;94855.97;5140074;27;20304;-76
2023/03/02 09:59:23;;;;;;;9.38;5.57;;;;;;;6.37;95.63;94852.81;5145412;27;20282;-77
2023/03/02 10:01:56;;;;;;;12.57;4.43;;;;;;;6.51;95.17;94848.28;5130149;27;20196;-77
2023/03/02 10:04:27;;;;;;;5.93;3.55;;;;;;;6.52;94.08;94849.06;5137313;27;20196;-79
2023/03/02 10:07:01;;;;;;;4.65;2.30;;;;;;;6.34;93.19;94853.41;5151244;27;20248;-77
2023/03/02 10:09:29;;;;;;;4.90;2.95;;;;;;;6.47;93.86;94854.53;5138618;27;20249;-77
2023/03/02 10:12:19;;;;;;;9.18;4.60;;;;;;;6.47;92.82;94857.22;5136571;27;20667;-77
2023/03/02 10:14:52;;;;;;;7.15;4.05;;;;;;;6.51;93.14;94863.63;5136760;27;20236;-78
2023/03/02 10:17:37;;;;;;;4.30;2.58;;;;;;;6.52;92.66;94862.53;5144023;27;20388;-78
2023/03/02 10:20:14;;;;;;;5.82;3.90;;;;;;;6.53;92.39;94856.06;5146282;27;20642;-78
2023/03/02 10:22:48;;;;;;;7.10;4.20;;;;;;;6.50;92.58;94867.41;5140843;27;20189;-78
2023/03/02 10:25:25;;;;;;;5.90;3.80;;;;;;;6.73;92.51;94855.66;5145365;27;20280;-80
2023/03/02 10:27:57;;;;;;;5.60;3.90;;;;;;;7.05;91.14;94852.91;5145408;27;20266;-78
2023/03/02 10:30:30;;;;;;;13.35;3.90;;;;;;;7.16;89.76;94853.50;5131056;27;20270;-78
2023/03/02 10:33:02;;;;;;;8.25;5.03;;;;;;;6.99;90.22;94859.47;5144125;27;20639;-78
2023/03/02 10:35:31;;;;;;;4.20;2.10;;;;;;;6.81;90.34;94857.69;5140788;27;20218;-79
2023/03/02 10:38:02;;;;;;;5.22;3.53;;;;;;;6.93;90.34;94855.31;5130114;27;20293;-78
2023/03/02 10:40:39;;;;;;;4.95;2.75;;;;;;;6.94;90.12;94851.50;5130214;28;20208;-79
2023/03/02 10:43:11;;;;;;;4.55;2.75;;;;;;;6.74;89.85;94847.31;5149518;27;20226;-79
2023/03/02 10:45:38;;;;;;;2.95;2.30;;;;;;;6.51;90.46;94852.84;5137724;27;20284;-77
2023/03/02 10:48:07;;;;;;;9.25;3.33;;;;;;;6.15;90.75;94840.00;5144087;27;20265;-76
2023/03/02 10:50:38;;;;;;;4.38;2.28;;;;;;;6.14;91.46;94841.13;5143975;27;20698;-78
2023/03/02 10:53:07;;;;;;;8.35;3.60;;;;;;;6.24;92.12;94849.00;5133965;27;20195;-79
2023/03/02 10:55:35;;;;;;;4.82;2.60;;;;;;;6.55;91.71;94845.78;5147846;27;20295;-78
2023/03/02 10:58:04;;;;;;;7.18;3.88;;;;;;;6.75;90.59;94842.72;5141589;27;20236;-79
2023/03/02 11:00:33;;;;;;;10.88;4.18;;;;;;;6.78;89.43;94844.81;5139396;27;20200;-79
2023/03/02 11:03:01;;;;;;;3.47;2.33;;;;;;;6.97;88.46;94829.34;5142638;27;20203;-80
2023/03/02 11:05:33;;;;;;;5.53;2.53;;;;;;;7.03;88.10;94828.16;5139198;27;20253;-79
2023/03/02 11:08:03;;;;;;;4.40;2.78;;;;;;;6.75;87.04;94834.63;5142799;27;20204;-79
2023/03/02 11:10:33;;;;;;;6.28;3.08;;;;;;;6.94;87.43;94832.66;5138535;27;20510;-79
2023/03/02 11:13:01;;;;;;;3.92;2.63;;;;;;;6.91;86.91;94830.56;5149829;27;20196;-78
2023/03/02 11:15:35;;;;;;;4.53;2.20;;;;;;;6.88;86.80;94836.53;5136803;27;20285;-78
2023/03/02 11:18:07;;;;;;;3.60;3.03;;;;;;;6.85;86.90;94820.97;5144310;27;20222;-80
2023/03/02 11:20:37;;;;;;;4.43;2.70;;;;;;;7.01;87.36;94819.59;5134105;27;20265;-80
2023/03/02 11:23:22;;;;;;;4.43;2.63;;;;;;;6.94;87.54;94818.41;5145508;27;20196;-78
2023/03/02 11:25:54;;;;;;;4.60;1.98;;;;;;;6.96;85.83;94811.63;5146009;27;20200;-78
2023/03/02 11:28:43;;;;;;;3.33;2.25;;;;;;;6.82;86.83;94805.44;5136627;27;20196;-80
2023/03/02 11:31:16;;;;;;;7.25;3.90;;;;;;;7.01;86.25;94798.03;5153165;27;20184;-79
2023/03/02 11:33:51;;;;;;;4.15;2.63;;;;;;;7.25;85.54;94797.81;5149896;27;20714;-78
2023/03/02 11:36:25;;;;;;;4.70;2.58;;;;;;;7.21;85.13;94801.41;5137470;27;20196;-79
2023/03/02 11:38:55;;;;;;;7.28;3.00;;;;;;;7.32;85.57;94805.50;5143898;27;20188;-77
2023/03/02 11:41:28;;;;;;;6.10;3.00;;;;;;;7.58;84.17;94798.44;5148705;27;20201;-79
2023/03/02 11:43:58;;;;;;;3.90;2.35;;;;;;;7.44;83.49;94793.09;5145185;27;21010;-76